createdAt,value
2019-01-27T00:00:08.992Z,24.65
2019-01-27T00:02:38.350Z,23.52
2019-01-27T00:05:08.046Z,23.85
2019-01-27T00:07:37.440Z,24.27
2019-01-27T00:10:07.208Z,24.55
2019-01-27T00:12:36.596Z,25.27
2019-01-27T00:15:06.513Z,23.87
2019-01-27T00:17:35.902Z,20.80
2019-01-27T00:20:06.926Z,23.00
2019-01-27T00:22:36.477Z,24.60
2019-01-27T00:25:06.141Z,22.82
2019-01-27T00:27:35.493Z,21.77
2019-01-27T00:30:06.213Z,24.85
2019-01-27T00:32:35.597Z,23.57
2019-01-27T00:35:05.216Z,22.80
2019-01-27T00:37:34.569Z,24.05
2019-01-27T00:40:04.821Z,23.15
2019-01-27T00:42:34.187Z,19.55
2019-01-27T00:45:03.669Z,21.50
2019-01-27T00:47:33.136Z,21.82
2019-01-27T00:50:02.520Z,22.93
2019-01-27T00:52:31.888Z,22.40
2019-01-27T00:55:01.266Z,21.68
2019-01-27T00:57:30.687Z,21.85
2019-01-27T01:00:00.232Z,20.70
2019-01-27T01:02:29.730Z,18.98
2019-01-27T01:04:59.089Z,18.50
2019-01-27T01:07:28.501Z,18.70
2019-01-27T01:09:57.905Z,17.80
2019-01-27T01:12:27.267Z,17.20
2019-01-27T01:14:56.725Z,17.65
2019-01-27T01:17:26.136Z,17.15
2019-01-27T01:23:23.612Z,17.05
2019-01-27T01:25:52.998Z,16.80
2019-01-27T01:28:22.363Z,15.88
2019-01-27T01:30:51.726Z,16.12
2019-01-27T01:33:21.113Z,14.05
2019-01-27T01:35:50.679Z,16.65
2019-01-27T01:38:20.157Z,15.40
2019-01-27T01:40:49.528Z,14.70
2019-01-27T01:43:18.931Z,14.53
2019-01-27T01:45:48.321Z,13.10
2019-01-27T01:48:17.710Z,15.15
2019-01-27T01:50:47.125Z,14.15
2019-01-27T01:53:16.617Z,13.48
2019-01-27T01:55:45.932Z,15.65
2019-01-27T01:58:15.324Z,14.78
2019-01-27T02:00:44.774Z,14.20
2019-01-27T02:03:14.179Z,13.85
2019-01-27T02:05:43.545Z,13.80
2019-01-27T02:08:12.924Z,16.15
2019-01-27T02:10:42.281Z,13.65
2019-01-27T02:13:11.692Z,13.95
2019-01-27T02:16:09.120Z,14.95
2019-01-27T02:18:39.699Z,15.08
2019-01-27T02:21:09.734Z,14.65
2019-01-27T02:23:39.750Z,16.20
2019-01-27T02:26:10.509Z,16.60
2019-01-27T02:28:39.858Z,15.38
2019-01-27T02:31:28.293Z,15.30
2019-01-27T02:33:57.621Z,15.75
2019-01-27T02:36:27.001Z,14.28
2019-01-27T02:38:56.376Z,14.07
2019-01-27T02:41:25.729Z,15.55
2019-01-27T02:43:55.118Z,15.68
2019-01-27T02:46:24.441Z,13.40
2019-01-27T02:48:53.948Z,14.38
2019-01-27T02:51:23.389Z,14.30
2019-01-27T02:53:52.762Z,15.80
2019-01-27T02:56:22.121Z,14.10
2019-01-27T02:58:56.645Z,13.95
2019-01-27T03:01:26.033Z,12.80
2019-01-27T03:03:55.406Z,13.78
2019-01-27T03:06:32.147Z,13.90
2019-01-27T03:09:11.909Z,13.18
2019-01-27T03:11:48.054Z,13.25
2019-01-27T03:14:18.489Z,14.73
2019-01-27T03:16:48.248Z,13.20
2019-01-27T03:19:17.710Z,13.78
2019-01-27T03:21:47.131Z,11.78
2019-01-27T03:24:16.487Z,11.18
2019-01-27T03:26:45.852Z,12.23
2019-01-27T03:29:15.194Z,11.85
2019-01-27T03:31:44.546Z,11.95
2019-01-27T03:34:13.918Z,12.60
2019-01-27T03:36:43.241Z,11.00
2019-01-27T03:39:13.185Z,13.05
2019-01-27T03:41:42.533Z,12.53
2019-01-27T03:44:12.289Z,12.30
2019-01-27T03:46:41.653Z,12.65
2019-01-27T03:49:11.001Z,11.70
2019-01-27T03:51:40.414Z,11.80
2019-01-27T03:54:09.858Z,11.30
2019-01-27T03:56:39.305Z,12.65
2019-01-27T03:59:08.643Z,10.23
2019-01-27T04:01:38.001Z,10.65
2019-01-27T04:04:07.539Z,12.50
2019-01-27T04:06:36.928Z,10.28
2019-01-27T04:09:09.515Z,13.20
2019-01-27T04:11:38.855Z,11.95
2019-01-27T04:14:08.194Z,11.57
2019-01-27T04:16:37.581Z,11.25
2019-01-27T04:19:06.946Z,10.05
2019-01-27T04:21:36.295Z,11.78
2019-01-27T04:24:05.734Z,10.53
2019-01-27T04:26:35.110Z,9.53
2019-01-27T04:29:04.813Z,11.45
2019-01-27T04:31:34.189Z,10.90
2019-01-27T04:34:03.552Z,12.65
2019-01-27T04:36:34.201Z,11.55
2019-01-27T04:39:05.468Z,10.58
2019-01-27T04:41:34.834Z,10.90
2019-01-27T04:44:04.601Z,10.98
2019-01-27T04:46:33.960Z,10.10
2019-01-27T04:49:03.317Z,10.93
2019-01-27T04:51:32.704Z,9.05
2019-01-27T04:54:02.085Z,10.28
2019-01-27T04:56:31.476Z,11.03
2019-01-27T04:59:00.888Z,10.03
2019-01-27T05:01:30.240Z,9.95
2019-01-27T05:04:04.477Z,9.95
2019-01-27T05:06:33.841Z,10.10
2019-01-27T05:09:04.977Z,8.55
2019-01-27T05:11:34.385Z,9.45
2019-01-27T05:14:03.796Z,8.75
2019-01-27T05:16:33.145Z,9.43
2019-01-27T05:19:02.538Z,9.00
2019-01-27T05:21:31.889Z,8.00
2019-01-27T05:24:01.285Z,8.88
2019-01-27T05:26:30.645Z,10.00
2019-01-27T05:29:00.016Z,8.85
2019-01-27T05:31:29.406Z,8.70
2019-01-27T05:33:58.837Z,9.70
2019-01-27T05:36:28.171Z,8.85
2019-01-27T05:38:57.549Z,8.80
2019-01-27T05:41:26.907Z,8.18
2019-01-27T05:43:56.259Z,8.03
2019-01-27T05:46:25.609Z,8.58
2019-01-27T05:48:54.941Z,9.03
2019-01-27T05:51:24.613Z,8.08
2019-01-27T05:53:53.960Z,8.85
2019-01-27T05:56:23.297Z,8.78
2019-01-27T05:58:52.649Z,8.73
2019-01-27T06:01:22.005Z,8.88
2019-01-27T06:03:51.382Z,8.95
2019-01-27T06:06:20.730Z,7.00
2019-01-27T06:08:50.094Z,8.55
2019-01-27T06:11:19.428Z,8.43
2019-01-27T06:13:48.825Z,7.50
2019-01-27T06:16:18.177Z,8.80
2019-01-27T06:18:47.528Z,8.70
2019-01-27T06:21:16.948Z,8.48
2019-01-27T06:23:46.305Z,8.95
2019-01-27T06:26:15.657Z,8.23
2019-01-27T06:28:45.010Z,8.98
2019-01-27T06:31:14.419Z,9.50
2019-01-27T06:33:57.577Z,7.37
2019-01-27T06:36:26.968Z,7.47
2019-01-27T06:38:56.321Z,9.00
2019-01-27T06:41:25.681Z,8.63
2019-01-27T06:43:55.023Z,8.53
2019-01-27T06:46:25.441Z,7.90
2019-01-27T06:48:54.841Z,7.12
2019-01-27T06:51:24.276Z,7.78
2019-01-27T06:53:53.662Z,8.28
2019-01-27T06:56:23.087Z,6.75
2019-01-27T06:59:03.516Z,8.68
2019-01-27T07:01:49.087Z,8.25
2019-01-27T07:04:27.096Z,7.37
2019-01-27T07:07:06.465Z,7.70
2019-01-27T07:09:53.554Z,7.22
2019-01-27T07:12:40.170Z,7.75
2019-01-27T07:15:39.713Z,7.20
2019-01-27T07:18:20.039Z,7.17
2019-01-27T07:21:01.306Z,8.23
2019-01-27T07:23:49.825Z,6.78
2019-01-27T07:26:36.971Z,6.37
2019-01-27T07:29:27.189Z,7.35
2019-01-27T07:32:18.352Z,6.85
2019-01-27T07:35:06.889Z,6.47
2019-01-27T07:37:58.290Z,7.83
2019-01-27T07:40:43.760Z,8.05
2019-01-27T07:43:26.037Z,7.55
2019-01-27T07:46:04.027Z,7.75
2019-01-27T07:48:49.958Z,7.37
2019-01-27T07:51:38.275Z,6.97
2019-01-27T07:54:32.689Z,7.20
2019-01-27T07:57:12.380Z,5.62
2019-01-27T07:59:47.463Z,7.37
2019-01-27T08:02:45.585Z,6.40
2019-01-27T08:05:32.487Z,6.20
2019-01-27T08:08:20.949Z,7.53
2019-01-27T08:11:18.501Z,6.90
2019-01-27T08:14:01.391Z,6.97
2019-01-27T08:16:48.374Z,6.10
2019-01-27T08:19:36.640Z,7.83
2019-01-27T08:22:25.129Z,6.67
2019-01-27T08:25:16.473Z,6.15
2019-01-27T08:28:16.738Z,7.40
2019-01-27T08:31:01.193Z,7.15
2019-01-27T08:33:47.529Z,6.42
2019-01-27T08:36:25.194Z,5.40
2019-01-27T08:39:19.331Z,6.65
2019-01-27T08:42:16.711Z,6.08
2019-01-27T08:45:05.108Z,7.42
2019-01-27T08:47:34.465Z,6.17
2019-01-27T08:50:05.036Z,6.37
2019-01-27T08:52:34.441Z,7.00
2019-01-27T08:55:03.881Z,6.42
2019-01-27T08:57:33.248Z,7.45
2019-01-27T09:00:02.611Z,5.30
2019-01-27T09:03:03.466Z,5.47
2019-01-27T09:05:40.666Z,6.95
2019-01-27T09:08:18.876Z,6.97
2019-01-27T09:11:17.901Z,6.45
2019-01-27T09:14:18.303Z,6.05
2019-01-27T09:17:06.589Z,6.75
2019-01-27T09:20:01.053Z,7.25
2019-01-27T09:22:49.348Z,6.50
2019-01-27T09:25:37.672Z,5.58
2019-01-27T09:28:18.421Z,5.00
2019-01-27T09:30:54.786Z,6.65
2019-01-27T09:33:32.800Z,5.95
2019-01-27T09:36:17.383Z,6.65
2019-01-27T09:39:04.349Z,6.03
2019-01-27T09:41:50.810Z,7.55
2019-01-27T09:44:43.465Z,6.45
2019-01-27T09:47:21.167Z,6.28
2019-01-27T09:50:03.162Z,4.92
2019-01-27T09:52:49.897Z,5.12
2019-01-27T09:55:39.188Z,5.10
2019-01-27T09:58:26.698Z,5.03
2019-01-27T10:01:06.795Z,4.95
2019-01-27T10:03:55.117Z,4.65
2019-01-27T10:06:31.772Z,4.25
2019-01-27T10:09:07.895Z,4.22
2019-01-27T10:11:54.877Z,4.28
2019-01-27T10:14:46.228Z,4.85
2019-01-27T10:17:29.990Z,4.40
2019-01-27T10:20:13.166Z,4.10
2019-01-27T10:22:49.823Z,3.80
2019-01-27T10:25:38.201Z,4.70
2019-01-27T10:28:32.697Z,3.58
2019-01-27T10:31:15.348Z,3.67
2019-01-27T10:34:02.254Z,4.40
2019-01-27T10:36:44.490Z,5.33
2019-01-27T10:39:35.865Z,3.83
2019-01-27T10:42:12.864Z,4.10
2019-01-27T10:44:53.069Z,3.62
2019-01-27T10:47:47.313Z,4.10
2019-01-27T10:50:48.580Z,4.05
2019-01-27T10:53:35.665Z,4.20
2019-01-27T10:56:14.212Z,4.08
2019-01-27T10:58:50.953Z,4.15
2019-01-27T11:01:36.599Z,4.67
2019-01-27T11:04:23.544Z,4.35
2019-01-27T11:07:26.716Z,3.90
2019-01-27T11:10:20.939Z,3.45
2019-01-27T11:13:01.215Z,3.52
2019-01-27T11:16:01.579Z,3.90
2019-01-27T11:18:41.580Z,3.00
2019-01-27T11:21:28.796Z,3.70
2019-01-27T11:24:21.165Z,3.98
2019-01-27T11:26:57.705Z,2.95
2019-01-27T11:29:46.174Z,3.55
2019-01-27T11:32:46.914Z,3.45
2019-01-27T11:35:27.004Z,3.05
2019-01-27T11:38:16.244Z,3.55
2019-01-27T11:40:58.957Z,3.67
2019-01-27T11:43:50.109Z,3.62
2019-01-27T11:46:44.551Z,3.60
2019-01-27T11:52:33.637Z,6.53
2019-01-27T11:55:03.041Z,2.80
2019-01-27T11:57:32.440Z,3.62
2019-01-27T12:00:01.794Z,4.42
2019-01-27T12:02:31.157Z,3.10
2019-01-27T12:05:00.515Z,3.05
2019-01-27T12:07:29.916Z,4.00
2019-01-27T12:09:59.299Z,5.12
2019-01-27T12:12:28.794Z,4.47
2019-01-27T12:14:58.206Z,3.37
2019-01-27T12:17:27.540Z,3.40
2019-01-27T12:19:56.872Z,4.30
2019-01-27T12:23:07.865Z,3.77
2019-01-27T12:25:37.212Z,3.30
2019-01-27T12:28:06.649Z,7.55
2019-01-27T12:30:36.358Z,2.85
2019-01-27T12:33:05.741Z,2.92
2019-01-27T12:35:35.127Z,3.12
2019-01-27T12:38:04.500Z,3.77
2019-01-27T12:40:33.947Z,3.55
2019-01-27T12:44:05.605Z,3.50
2019-01-27T12:46:34.966Z,4.12
2019-01-27T12:49:04.596Z,4.20
2019-01-27T12:51:33.924Z,4.17
2019-01-27T12:54:03.386Z,5.08
2019-01-27T12:56:32.766Z,5.17
2019-01-27T12:59:02.235Z,5.17
2019-01-27T13:01:31.625Z,4.12
2019-01-27T13:04:01.044Z,3.52
2019-01-27T13:06:30.488Z,3.83
2019-01-27T13:08:59.964Z,2.35
2019-01-27T13:11:29.334Z,3.75
2019-01-27T13:13:58.741Z,3.20
2019-01-27T13:16:28.071Z,4.67
2019-01-27T13:18:57.864Z,3.00
2019-01-27T13:21:27.279Z,3.80
2019-01-27T13:23:56.637Z,4.10
2019-01-27T13:26:26.016Z,3.10
2019-01-27T13:28:55.406Z,3.85
2019-01-27T13:31:24.829Z,3.30
2019-01-27T13:33:54.314Z,3.72
2019-01-27T13:36:23.656Z,2.50
2019-01-27T13:38:53.069Z,3.77
2019-01-27T13:44:50.468Z,2.85
2019-01-27T13:47:20.121Z,4.30
2019-01-27T13:49:49.454Z,4.78
2019-01-27T13:52:18.838Z,3.10
2019-01-27T13:54:48.206Z,3.05
2019-01-27T13:57:17.630Z,3.75
2019-01-27T13:59:46.972Z,2.87
2019-01-27T14:02:16.369Z,3.33
2019-01-27T14:04:48.707Z,4.12
2019-01-27T14:07:18.085Z,3.62
2019-01-27T14:09:47.454Z,3.00
2019-01-27T14:12:16.837Z,3.60
2019-01-27T14:14:46.202Z,4.17
2019-01-27T14:17:15.541Z,3.25
2019-01-27T14:19:44.912Z,3.17
2019-01-27T14:22:14.277Z,3.85
2019-01-27T14:24:43.629Z,5.45
2019-01-27T14:27:12.984Z,3.60
2019-01-27T14:29:42.336Z,3.60
2019-01-27T14:32:11.721Z,3.30
2019-01-27T14:34:41.124Z,3.87
2019-01-27T14:37:10.476Z,3.90
2019-01-27T14:39:39.828Z,3.08
2019-01-27T14:42:09.417Z,3.50
2019-01-27T14:44:38.790Z,3.90
2019-01-27T14:47:08.143Z,4.67
2019-01-27T14:49:37.618Z,3.85
2019-01-27T14:52:07.049Z,3.50
2019-01-27T14:54:36.405Z,3.65
2019-01-27T14:57:05.793Z,2.83
2019-01-27T14:59:35.166Z,3.52
2019-01-27T15:02:04.543Z,3.42
2019-01-27T15:04:33.945Z,2.75
2019-01-27T15:07:03.352Z,3.27
2019-01-27T15:09:32.721Z,3.15
2019-01-27T15:12:02.151Z,2.62
2019-01-27T15:14:31.549Z,2.95
2019-01-27T15:17:00.983Z,2.92
2019-01-27T15:19:30.449Z,2.45
2019-01-27T15:21:59.849Z,4.20
2019-01-27T15:24:29.239Z,3.55
2019-01-27T15:26:58.877Z,3.75
2019-01-27T15:29:28.261Z,2.95
2019-01-27T15:31:57.626Z,3.27
2019-01-27T15:34:27.369Z,3.83
2019-01-27T15:36:56.728Z,4.67
2019-01-27T15:39:26.150Z,5.22
2019-01-27T15:41:55.628Z,2.67
2019-01-27T15:44:24.976Z,6.03
2019-01-27T15:46:54.348Z,4.67
2019-01-27T15:49:23.837Z,3.40
2019-01-27T15:51:53.190Z,4.05
2019-01-27T15:54:22.583Z,3.52
2019-01-27T15:56:51.975Z,3.10
2019-01-27T15:59:21.322Z,3.52
2019-01-27T16:01:50.747Z,5.90
2019-01-27T16:04:20.202Z,4.53
2019-01-27T16:06:49.577Z,3.33
2019-01-27T16:09:18.983Z,3.90
2019-01-27T16:11:48.413Z,3.22
2019-01-27T16:14:17.781Z,3.65
2019-01-27T16:16:47.389Z,3.85
2019-01-27T16:19:16.754Z,4.70
2019-01-27T16:21:46.189Z,2.90
2019-01-27T16:24:23.562Z,3.95
2019-01-27T16:26:52.912Z,3.95
2019-01-27T16:29:37.381Z,3.75
2019-01-27T16:32:15.061Z,3.70
2019-01-27T16:34:49.871Z,3.90
2019-01-27T16:37:19.235Z,4.97
2019-01-27T16:39:48.798Z,4.20
2019-01-27T16:42:18.228Z,3.40
2019-01-27T16:44:47.600Z,4.95
2019-01-27T16:47:18.921Z,4.75
2019-01-27T16:49:48.067Z,3.47
2019-01-27T16:52:18.669Z,4.65
2019-01-27T16:54:48.414Z,2.90
2019-01-27T16:57:17.804Z,3.20
2019-01-27T16:59:47.188Z,3.77
2019-01-27T17:02:16.567Z,3.45
2019-01-27T17:04:45.940Z,4.10
2019-01-27T17:07:15.317Z,3.33
2019-01-27T17:09:44.666Z,4.10
2019-01-27T17:12:14.074Z,4.08
2019-01-27T17:14:43.447Z,4.55
2019-01-27T17:17:15.263Z,4.78
2019-01-27T17:19:44.641Z,5.65
2019-01-27T17:22:14.007Z,6.05
2019-01-27T17:24:43.359Z,5.00
2019-01-27T17:27:12.792Z,11.95
2019-01-27T17:29:42.378Z,5.30
2019-01-27T17:32:12.063Z,11.40
2019-01-27T17:34:43.167Z,8.18
2019-01-27T17:37:13.261Z,7.75
2019-01-27T17:39:42.914Z,10.25
2019-01-27T17:42:12.602Z,6.37
2019-01-27T17:44:42.306Z,8.10
2019-01-27T17:47:12.048Z,7.70
2019-01-27T17:49:42.462Z,8.90
2019-01-27T17:52:12.303Z,6.75
2019-01-27T17:54:42.042Z,5.70
2019-01-27T17:57:39.217Z,8.15
2019-01-27T18:00:32.474Z,6.70
2019-01-27T18:03:08.691Z,5.35
2019-01-27T18:06:09.476Z,5.78
2019-01-27T18:08:55.006Z,4.42
2019-01-27T18:11:43.828Z,4.60
2019-01-27T18:14:17.598Z,5.05
2019-01-27T18:16:46.986Z,6.00
2019-01-27T18:19:16.392Z,5.47
2019-01-27T18:21:45.793Z,4.55
2019-01-27T18:24:15.176Z,4.58
2019-01-27T18:26:44.580Z,3.90
2019-01-27T18:29:13.965Z,3.67
2019-01-27T18:31:43.324Z,4.25
2019-01-27T18:34:12.711Z,3.20
2019-01-27T18:36:42.108Z,3.25
2019-01-27T18:39:12.862Z,4.95
2019-01-27T18:41:42.447Z,4.85
2019-01-27T18:44:11.927Z,4.12
2019-01-27T18:46:41.367Z,4.72
2019-01-27T18:49:10.705Z,4.30
2019-01-27T18:51:47.679Z,4.22
2019-01-27T18:54:45.153Z,4.33
2019-01-27T18:57:19.365Z,4.95
2019-01-27T19:00:06.681Z,4.08
2019-01-27T19:02:58.010Z,4.60
2019-01-27T19:05:45.003Z,3.87
2019-01-27T19:08:24.702Z,5.33
2019-01-27T19:11:02.181Z,4.50
2019-01-27T19:13:49.027Z,3.80
2019-01-27T19:16:35.791Z,4.67
2019-01-27T19:19:23.261Z,5.42
2019-01-27T19:22:15.654Z,4.53
2019-01-27T19:25:03.672Z,4.80
2019-01-27T19:27:52.639Z,3.58
2019-01-27T19:30:33.517Z,4.30
2019-01-27T19:33:13.588Z,4.10
2019-01-27T19:35:53.057Z,5.30
2019-01-27T19:38:47.861Z,6.05
2019-01-27T19:41:28.937Z,4.90
2019-01-27T19:44:16.684Z,3.90
2019-01-27T19:46:59.356Z,3.33
2019-01-27T19:49:37.122Z,5.15
2019-01-27T19:52:26.685Z,4.50
2019-01-27T19:55:10.776Z,5.33
2019-01-27T19:58:13.978Z,3.95
2019-01-27T20:01:01.826Z,4.85
2019-01-27T20:03:52.956Z,4.22
2019-01-27T20:06:31.266Z,4.60
2019-01-27T20:09:37.537Z,3.67
2019-01-27T20:12:14.446Z,3.95
2019-01-27T20:15:02.001Z,5.30
2019-01-27T20:17:50.461Z,6.33
2019-01-27T20:20:41.791Z,5.28
2019-01-27T20:23:28.816Z,4.65
2019-01-27T20:26:04.033Z,4.92
2019-01-27T20:28:52.390Z,4.78
2019-01-27T20:31:46.128Z,4.05
2019-01-27T20:34:52.589Z,4.45
2019-01-27T20:37:32.832Z,4.47
2019-01-27T20:40:32.883Z,3.55
2019-01-27T20:43:19.515Z,3.10
2019-01-27T20:46:05.828Z,4.10
2019-01-27T20:48:57.354Z,4.75
2019-01-27T20:51:33.068Z,4.17
2019-01-27T20:54:24.137Z,3.60
2019-01-27T20:57:15.219Z,4.00
2019-01-27T21:00:01.912Z,4.08
2019-01-27T21:02:56.250Z,4.47
2019-01-27T21:05:50.552Z,3.20
2019-01-27T21:08:38.878Z,4.45
2019-01-27T21:11:29.936Z,4.58
2019-01-27T21:14:04.700Z,3.72
2019-01-27T21:16:53.274Z,3.90
2019-01-27T21:19:30.454Z,3.77
2019-01-27T21:21:59.825Z,3.60
2019-01-27T21:24:29.249Z,4.40
2019-01-27T21:26:58.604Z,3.62
2019-01-27T21:29:27.953Z,3.58
2019-01-27T21:31:57.302Z,3.60
2019-01-27T21:34:26.778Z,3.67
2019-01-27T21:36:56.140Z,3.47
2019-01-27T21:39:25.472Z,3.25
2019-01-27T21:41:54.812Z,3.47
2019-01-27T21:44:24.156Z,2.95
2019-01-27T21:46:53.507Z,3.00
2019-01-27T21:49:22.839Z,3.70
2019-01-27T21:51:52.197Z,3.92
2019-01-27T21:54:21.538Z,3.80
2019-01-27T21:56:50.899Z,4.10
2019-01-27T21:59:20.230Z,3.58
2019-01-27T22:01:49.592Z,3.50
2019-01-27T22:04:18.972Z,3.95
2019-01-27T22:06:48.376Z,5.10
2019-01-27T22:09:17.712Z,4.20
2019-01-27T22:11:47.117Z,3.75
2019-01-27T22:14:16.482Z,4.28
2019-01-27T22:16:45.869Z,3.95
2019-01-27T22:19:15.260Z,3.83
2019-01-27T22:21:44.577Z,4.42
2019-01-27T22:24:14.129Z,4.62
2019-01-27T22:26:43.499Z,4.78
2019-01-27T22:29:13.099Z,3.70
2019-01-27T22:31:42.454Z,4.22
2019-01-27T22:34:11.913Z,3.80
2019-01-27T22:36:41.251Z,4.50
2019-01-27T22:39:10.579Z,3.70
2019-01-27T22:41:39.977Z,3.90
2019-01-27T22:44:09.309Z,3.70
2019-01-27T22:46:38.655Z,3.80
2019-01-27T22:49:08.061Z,3.60
2019-01-27T22:51:37.465Z,4.10
2019-01-27T22:54:06.870Z,3.55
2019-01-27T22:56:36.224Z,3.62
2019-01-27T22:59:05.588Z,4.12
2019-01-27T23:01:35.134Z,4.25
2019-01-27T23:04:05.158Z,4.78
2019-01-27T23:06:34.525Z,4.20
2019-01-27T23:09:06.970Z,3.40
2019-01-27T23:11:36.344Z,4.80
2019-01-27T23:14:06.194Z,3.52
2019-01-27T23:16:35.561Z,4.40
2019-01-27T23:19:04.915Z,3.75
2019-01-27T23:21:34.283Z,3.55
2019-01-27T23:24:03.640Z,4.25
2019-01-27T23:26:32.973Z,4.20
2019-01-27T23:29:02.366Z,4.53
2019-01-27T23:31:31.711Z,3.98
2019-01-27T23:34:01.097Z,3.35
2019-01-27T23:36:30.493Z,3.00
2019-01-27T23:38:59.835Z,4.03
2019-01-27T23:41:29.193Z,3.90
2019-01-27T23:43:58.588Z,2.85
2019-01-27T23:46:27.941Z,4.15
2019-01-27T23:48:57.545Z,4.37
2019-01-27T23:51:26.876Z,3.80
2019-01-27T23:53:56.212Z,3.40
2019-01-27T23:56:25.574Z,3.98
2019-01-27T23:58:54.925Z,3.80
